Time;durP1;ratioP1;P1;durP2;ratioP2;P2;SDS_P1;SDS_P2;PMS_P1;PMS_P2;Temp;Humidity;BMP_temperature;BMP_pressure;BME280_temperature;BME280_humidity;BME280_pressure;Samples;Min_cycle;Max_cycle;Signal;HPM_P1;HPM_P2
2022/03/29 00:00:13;;;;;;;6.77;5.63;;;20.20;50.40;21.20;100767.00;;;;4990116;28;20724;-56
2022/03/29 00:02:41;;;;;;;6.70;5.43;;;20.20;50.40;21.20;100768.00;;;;4989814;28;20183;-54
2022/03/29 00:05:07;;;;;;;6.43;5.77;;;20.20;50.30;21.20;100768.00;;;;4989682;28;20663;-52
2022/03/29 00:07:34;;;;;;;6.60;6.00;;;20.20;50.40;21.20;100768.00;;;;4990368;28;20176;-55
2022/03/29 00:10:01;;;;;;;6.83;6.03;;;20.20;50.40;21.20;100763.00;;;;4990322;28;20246;-54
2022/03/29 00:12:27;;;;;;;6.30;5.70;;;20.10;50.30;21.20;100755.00;;;;4992423;28;20172;-54
2022/03/29 00:14:53;;;;;;;5.90;5.30;;;20.10;50.30;21.10;100760.00;;;;4992893;28;20223;-54
2022/03/29 00:17:19;;;;;;;5.93;5.33;;;20.10;50.30;21.10;100751.00;;;;4990323;28;20264;-53
2022/03/29 00:19:44;;;;;;;6.00;5.40;;;20.10;50.30;21.10;100755.00;;;;4990685;28;20282;-54
2022/03/29 00:22:10;;;;;;;6.83;5.37;;;20.10;50.30;20.90;100758.00;;;;4991305;28;20202;-54
2022/03/29 00:24:36;;;;;;;6.23;5.40;;;20.10;50.30;21.10;100729.00;;;;4989263;28;20208;-55
2022/03/29 00:27:01;;;;;;;7.30;5.60;;;20.00;50.20;21.10;100751.00;;;;4989664;28;20173;-54
2022/03/29 00:29:27;;;;;;;6.93;5.90;;;20.00;50.20;21.10;100746.00;;;;4990306;28;20193;-53
2022/03/29 00:31:53;;;;;;;5.93;5.30;;;20.00;50.20;21.00;100741.00;;;;4989570;28;20555;-54
2022/03/29 00:34:18;;;;;;;6.53;5.57;;;20.00;50.30;21.00;100743.00;;;;4989572;28;20186;-54
2022/03/29 00:36:44;;;;;;;6.23;5.63;;;20.00;50.40;21.00;100742.00;;;;4989432;28;20183;-53
2022/03/29 00:39:10;;;;;;;6.97;5.33;;;20.00;50.30;21.00;100742.00;;;;4989484;28;20259;-52
2022/03/29 00:41:36;;;;;;;6.13;5.50;;;20.00;50.30;21.00;100734.00;;;;4989745;28;20176;-54
2022/03/29 00:44:01;;;;;;;6.00;5.40;;;19.90;50.20;21.00;100734.00;;;;4989826;28;20610;-53
2022/03/29 00:46:27;;;;;;;5.47;4.80;;;19.90;50.30;20.90;100714.00;;;;4989896;28;20180;-55
2022/03/29 00:48:54;;;;;;;6.30;5.50;;;19.90;50.40;20.90;100737.00;;;;4989604;28;20196;-55
2022/03/29 00:51:19;;;;;;;6.37;5.40;;;19.90;50.50;20.90;100726.00;;;;4989521;28;20183;-54
2022/03/29 00:53:45;;;;;;;5.80;5.20;;;19.90;50.60;20.90;100718.00;;;;4989331;28;20176;-53
2022/03/29 00:56:11;;;;;;;6.20;5.30;;;19.90;50.70;20.90;100721.00;;;;4987764;28;20567;-54
2022/03/29 00:58:36;;;;;;;6.30;5.70;;;19.80;50.60;20.90;100729.00;;;;4987757;28;20200;-53
2022/03/29 01:01:03;;;;;;;6.63;5.60;;;19.80;50.70;20.90;100725.00;;;;4990347;28;20205;-54
2022/03/29 01:03:30;;;;;;;5.97;5.40;;;19.90;50.70;20.80;100715.00;;;;4993135;28;20609;-55
2022/03/29 01:05:56;;;;;;;5.73;5.07;;;19.90;50.70;20.80;100702.00;;;;4992875;28;20180;-56
2022/03/29 01:08:22;;;;;;;5.73;5.23;;;19.80;50.60;20.80;100707.00;;;;4991561;28;20188;-53
2022/03/29 01:10:48;;;;;;;6.50;5.50;;;19.80;50.60;20.80;100711.00;;;;4991917;28;20199;-54
2022/03/29 01:13:14;;;;;;;6.07;5.47;;;19.80;50.60;20.80;100702.00;;;;4993164;28;20656;-54
2022/03/29 01:15:40;;;;;;;5.77;5.27;;;19.70;50.50;20.80;100705.00;;;;4992024;28;20176;-54
2022/03/29 01:18:06;;;;;;;5.57;5.07;;;19.80;50.60;20.80;100697.00;;;;4991323;28;20203;-55
2022/03/29 01:20:32;;;;;;;5.90;5.40;;;19.70;50.60;20.80;100698.00;;;;4991436;28;20200;-54
2022/03/29 01:23:00;;;;;;;5.70;4.83;;;19.70;50.60;20.70;100704.00;;;;4992219;28;20192;-54
2022/03/29 01:25:36;;;;;;;5.50;5.00;;;19.80;50.70;20.70;100692.00;;;;4992913;28;20188;-53
2022/03/29 01:28:03;;;;;;;5.60;5.10;;;19.70;50.60;20.70;100688.00;;;;4991514;28;20199;-55
2022/03/29 01:30:29;;;;;;;5.90;5.40;;;19.70;50.60;20.70;100687.00;;;;4992016;28;20180;-53
2022/03/29 01:32:55;;;;;;;5.30;4.80;;;19.70;50.60;20.70;100682.00;;;;4991655;28;20181;-54
2022/03/29 01:35:22;;;;;;;5.70;5.10;;;19.70;50.60;20.70;100677.00;;;;4991464;28;20272;-54
2022/03/29 01:37:48;;;;;;;5.60;5.10;;;19.60;50.50;20.60;100678.00;;;;4992259;28;20659;-53
2022/03/29 01:40:16;;;;;;;6.47;5.10;;;19.70;50.60;20.60;100675.00;;;;4992217;28;20204;-54
2022/03/29 01:42:53;;;;;;;5.77;5.20;;;19.70;50.60;20.60;100674.00;;;;4992479;28;20180;-54
2022/03/29 01:45:20;;;;;;;6.03;5.10;;;19.60;50.60;20.60;100676.00;;;;4992445;28;20725;-54
2022/03/29 01:47:46;;;;;;;5.33;4.60;;;19.60;50.60;20.60;100679.00;;;;4992510;28;20172;-54
2022/03/29 01:50:12;;;;;;;5.13;4.50;;;19.60;50.60;20.60;100660.00;;;;4993222;28;20689;-52
2022/03/29 01:52:47;;;;;;;5.07;4.63;;;19.60;50.60;20.60;100663.00;;;;4992548;28;20206;-55
2022/03/29 01:55:16;;;;;;;5.03;4.53;;;19.60;50.60;20.50;100659.00;;;;4992526;28;20172;-54
2022/03/29 01:57:42;;;;;;;5.20;4.70;;;19.60;50.60;20.50;100646.00;;;;4991854;28;20550;-54
2022/03/29 02:02:53;;;;;;;5.30;4.90;;;19.60;50.60;20.50;100650.00;;;;4992139;28;20207;-54
2022/03/29 02:05:20;;;;;;;5.43;4.90;;;19.50;50.70;20.50;100655.00;;;;4992159;28;20619;-55
2022/03/29 02:07:45;;;;;;;5.80;5.03;;;19.50;50.70;20.50;100587.00;;;;4992159;28;20246;-55
2022/03/29 02:10:16;;;;;;;5.60;5.10;;;19.50;50.70;20.50;100642.00;;;;4992097;28;20188;-55
2022/03/29 02:12:42;;;;;;;5.70;5.10;;;19.50;50.70;20.50;100644.00;;;;4990464;28;20172;-55
2022/03/29 02:15:08;;;;;;;5.10;4.60;;;19.50;50.70;20.40;100639.00;;;;4991696;28;20601;-53
2022/03/29 02:17:34;;;;;;;5.50;5.00;;;19.50;50.70;20.40;100640.00;;;;4990161;28;20180;-53
2022/03/29 02:19:59;;;;;;;5.60;5.10;;;19.40;50.60;20.40;100614.00;;;;4991756;28;20274;-54
2022/03/29 02:22:25;;;;;;;5.70;5.20;;;19.40;50.60;20.40;100643.00;;;;4990614;28;20176;-54
2022/03/29 02:24:52;;;;;;;5.63;5.13;;;19.40;50.60;20.40;100639.00;;;;4991514;28;20180;-54
2022/03/29 02:27:18;;;;;;;5.23;4.70;;;19.40;50.60;20.40;100630.00;;;;4991248;28;20169;-54
2022/03/29 02:29:43;;;;;;;6.30;5.20;;;19.40;50.70;20.40;100639.00;;;;4991802;28;20207;-54
2022/03/29 02:32:10;;;;;;;5.40;4.67;;;19.40;50.70;20.30;100626.00;;;;4991401;28;20168;-55
2022/03/29 02:34:35;;;;;;;5.30;4.73;;;19.40;50.60;20.30;100629.00;;;;4991476;28;20172;-54
2022/03/29 02:37:01;;;;;;;5.27;4.77;;;19.40;50.70;20.30;100627.00;;;;4991131;28;20281;-53
2022/03/29 02:39:27;;;;;;;5.40;4.90;;;19.40;50.70;20.30;100634.00;;;;4991214;28;20208;-54
2022/03/29 02:41:52;;;;;;;5.40;4.90;;;19.40;50.70;20.30;100623.00;;;;4991072;28;20168;-54
2022/03/29 02:44:18;;;;;;;5.20;4.70;;;19.40;50.70;20.30;100611.00;;;;4991375;28;20173;-54
2022/03/29 02:46:44;;;;;;;5.20;4.70;;;19.30;50.60;20.30;100613.00;;;;4991847;28;20172;-53
2022/03/29 02:49:10;;;;;;;5.47;5.00;;;19.30;50.60;20.30;100607.00;;;;4973288;28;20192;-53
2022/03/29 02:51:36;;;;;;;7.20;5.20;;;19.30;50.60;20.30;100612.00;;;;4991256;28;20190;-53
2022/03/29 02:54:01;;;;;;;5.90;5.03;;;19.30;50.60;20.20;100615.00;;;;4990584;28;20172;-54
2022/03/29 02:56:28;;;;;;;5.50;4.90;;;19.30;50.60;20.20;100603.00;;;;4990787;28;20566;-54
2022/03/29 02:58:53;;;;;;;5.33;4.83;;;19.30;50.60;20.20;100607.00;;;;4990894;28;20195;-54
2022/03/29 03:01:19;;;;;;;5.57;5.07;;;19.30;50.70;20.20;100596.00;;;;4990520;28;20203;-55
2022/03/29 03:03:45;;;;;;;5.60;5.10;;;19.20;50.50;20.20;100607.00;;;;4989703;28;20184;-54
2022/03/29 03:06:11;;;;;;;5.77;5.17;;;19.20;50.60;20.20;100600.00;;;;4990683;28;20183;-55
2022/03/29 03:08:36;;;;;;;6.23;5.30;;;19.20;50.60;20.10;100598.00;;;;4990238;28;20200;-54
2022/03/29 03:11:02;;;;;;;5.90;5.40;;;19.20;51.20;20.10;100574.00;;;;4991892;28;20192;-54
2022/03/29 03:13:28;;;;;;;7.30;5.53;;;19.20;50.70;20.10;100579.00;;;;4990943;28;20562;-54
2022/03/29 03:15:54;;;;;;;5.90;5.30;;;19.20;50.70;20.10;100586.00;;;;4991111;28;20181;-53
2022/03/29 03:18:20;;;;;;;6.13;5.37;;;19.20;50.70;20.10;100575.00;;;;4991663;28;20210;-54
2022/03/29 03:20:45;;;;;;;6.87;5.80;;;19.20;50.70;20.10;100574.00;;;;4991323;28;20688;-53
2022/03/29 03:23:11;;;;;;;8.10;5.50;;;19.20;50.90;20.10;100587.00;;;;4990000;28;20202;-55
2022/03/29 03:25:38;;;;;;;7.17;5.43;;;19.10;50.70;20.10;100574.00;;;;4991223;28;20182;-54
2022/03/29 03:28:04;;;;;;;7.20;5.83;;;19.10;50.60;20.10;100573.00;;;;4990957;28;20192;-55
2022/03/29 03:30:30;;;;;;;6.90;5.80;;;19.10;50.60;20.10;100574.00;;;;4991321;28;20180;-53
2022/03/29 03:32:55;;;;;;;6.53;5.83;;;19.10;50.50;20.00;100567.00;;;;4993065;28;20582;-53
2022/03/29 03:35:21;;;;;;;7.70;6.40;;;19.10;50.50;20.00;100567.00;;;;4993117;28;20526;-53
2022/03/29 03:37:48;;;;;;;6.83;5.27;;;19.00;50.50;20.00;100563.00;;;;4990478;28;20176;-53
2022/03/29 03:40:13;;;;;;;6.30;5.70;;;19.10;50.50;20.00;100564.00;;;;4989523;28;20211;-53
2022/03/29 03:42:40;;;;;;;8.07;5.80;;;19.10;50.50;20.00;100564.00;;;;4990312;28;20185;-53
2022/03/29 03:45:06;;;;;;;8.83;6.20;;;19.00;50.40;20.00;100562.00;;;;4990287;28;20258;-53
2022/03/29 03:47:32;;;;;;;7.27;5.87;;;19.00;50.40;20.00;100562.00;;;;4988600;28;20489;-53
2022/03/29 03:49:58;;;;;;;8.83;5.73;;;19.00;50.40;19.90;100561.00;;;;4990363;28;20179;-54
2022/03/29 03:52:24;;;;;;;6.03;5.33;;;19.00;50.30;19.90;100557.00;;;;4990122;28;20217;-53
2022/03/29 03:54:50;;;;;;;6.80;5.90;;;19.00;50.30;19.90;100561.00;;;;4989711;28;20171;-55
2022/03/29 03:57:17;;;;;;;6.50;5.57;;;19.00;50.40;19.90;100553.00;;;;4987381;28;20665;-53
2022/03/29 03:59:44;;;;;;;6.20;5.60;;;18.90;50.30;19.90;100554.00;;;;5004551;28;20209;-54
2022/03/29 04:02:10;;;;;;;6.90;5.73;;;18.90;50.30;19.90;100552.00;;;;4989253;28;20156;-54
2022/03/29 04:04:36;;;;;;;7.57;5.80;;;18.90;50.20;19.90;100550.00;;;;4989120;28;20545;-54
2022/03/29 04:07:02;;;;;;;6.17;5.57;;;18.90;50.30;19.90;100535.00;;;;5004514;28;20186;-54
2022/03/29 04:09:28;;;;;;;6.73;5.90;;;18.90;50.30;19.80;100535.00;;;;5004676;28;20216;-53
2022/03/29 04:11:53;;;;;;;7.47;5.83;;;18.90;50.30;19.80;100527.00;;;;4989728;28;20664;-53
2022/03/29 04:14:19;;;;;;;7.03;5.93;;;18.90;50.30;19.80;100523.00;;;;4989307;28;20176;-54
2022/03/29 04:16:45;;;;;;;7.13;5.97;;;18.80;50.20;19.80;100524.00;;;;4988977;28;20524;-53
2022/03/29 04:19:11;;;;;;;6.43;5.83;;;18.90;50.40;19.80;100524.00;;;;4989410;28;20191;-53
2022/03/29 04:21:36;;;;;;;7.43;6.10;;;18.80;50.30;19.80;100523.00;;;;4989565;28;20169;-57
2022/03/29 04:24:03;;;;;;;6.57;5.87;;;18.80;50.30;19.80;100513.00;;;;4989238;28;20311;-53
2022/03/29 04:26:30;;;;;;;7.97;5.90;;;18.80;50.30;19.80;100509.00;;;;4988999;28;20164;-54
2022/03/29 04:28:56;;;;;;;7.07;6.03;;;18.80;50.30;19.80;100516.00;;;;4989378;28;20192;-52
2022/03/29 04:31:22;;;;;;;6.33;5.63;;;18.80;50.30;19.80;100516.00;;;;4988988;28;20234;-54
2022/03/29 04:33:48;;;;;;;7.10;6.40;;;18.80;50.30;19.80;100509.00;;;;5004006;28;20177;-52
2022/03/29 04:36:13;;;;;;;9.30;6.10;;;18.80;50.40;19.70;100509.00;;;;4988230;28;20178;-51
2022/03/29 04:38:39;;;;;;;8.17;5.80;;;18.80;50.50;19.70;100494.00;;;;4988906;28;20246;-53
2022/03/29 04:41:05;;;;;;;7.13;6.07;;;18.80;50.40;19.70;100488.00;;;;4989155;28;20712;-55
2022/03/29 04:43:31;;;;;;;6.50;5.70;;;18.80;50.50;19.70;100505.00;;;;5003411;28;20546;-54
2022/03/29 04:45:56;;;;;;;7.43;5.87;;;18.80;50.50;19.70;100500.00;;;;4988818;28;20164;-53
2022/03/29 04:48:23;;;;;;;6.73;5.63;;;18.70;50.40;19.70;100499.00;;;;5003681;28;20549;-53
2022/03/29 04:50:49;;;;;;;6.10;5.50;;;18.70;50.40;19.70;100496.00;;;;4989028;28;20170;-53
2022/03/29 04:53:14;;;;;;;7.97;5.83;;;18.80;50.50;19.70;100490.00;;;;4988414;28;20177;-52
2022/03/29 04:55:40;;;;;;;8.70;5.77;;;18.70;50.40;19.70;100490.00;;;;4989122;28;20179;-54
2022/03/29 04:58:06;;;;;;;6.77;6.07;;;18.70;50.50;19.70;100472.00;;;;4988270;28;20688;-53
2022/03/29 05:00:32;;;;;;;7.27;5.90;;;18.70;50.50;19.60;100488.00;;;;4988989;28;20223;-54
2022/03/29 05:02:57;;;;;;;6.70;5.73;;;18.70;50.50;19.60;100471.00;;;;4988745;28;20175;-53
2022/03/29 05:05:23;;;;;;;7.17;5.57;;;18.70;50.50;19.60;100473.00;;;;4989098;28;20172;-54
2022/03/29 05:07:49;;;;;;;7.50;6.17;;;18.70;50.40;19.60;100472.00;;;;4989126;28;20597;-55
2022/03/29 05:10:15;;;;;;;6.60;5.57;;;18.70;50.50;19.60;100469.00;;;;4989086;28;20195;-54
2022/03/29 05:12:42;;;;;;;6.80;5.70;;;18.60;50.40;19.60;100462.00;;;;4988641;28;20718;-54
2022/03/29 05:15:08;;;;;;;7.27;5.80;;;18.60;50.30;19.60;100466.00;;;;4988950;28;20182;-54
2022/03/29 05:17:35;;;;;;;7.17;5.77;;;18.60;50.40;19.50;100459.00;;;;4988960;28;20187;-54
2022/03/29 05:20:02;;;;;;;5.83;5.30;;;18.60;50.30;19.50;100455.00;;;;5003854;28;20571;-54
2022/03/29 05:22:28;;;;;;;6.20;5.50;;;18.60;50.30;19.50;100455.00;;;;4988864;28;20172;-53
2022/03/29 05:24:54;;;;;;;6.40;5.57;;;18.60;50.30;19.50;100460.00;;;;4988214;28;20210;-52
2022/03/29 05:27:19;;;;;;;6.90;5.30;;;18.60;51.00;19.50;100451.00;;;;4988168;28;20180;-53
2022/03/29 05:29:45;;;;;;;6.33;5.33;;;18.50;50.30;19.50;100451.00;;;;4988306;28;20200;-54
2022/03/29 05:32:11;;;;;;;6.43;5.83;;;18.50;50.30;19.50;100454.00;;;;4988941;28;20197;-54
2022/03/29 05:34:37;;;;;;;6.00;5.40;;;18.50;50.30;19.50;100449.00;;;;4988206;28;20594;-54
2022/03/29 05:37:02;;;;;;;6.27;5.60;;;18.50;50.30;19.50;100465.00;;;;4988624;28;20190;-54
2022/03/29 05:39:28;;;;;;;5.70;5.20;;;18.50;50.30;19.40;100467.00;;;;4988823;28;20208;-52
2022/03/29 05:41:54;;;;;;;6.43;5.40;;;18.50;50.30;19.40;100457.00;;;;4988249;28;20822;-53
2022/03/29 05:44:19;;;;;;;5.73;5.13;;;18.50;50.30;19.40;100455.00;;;;4988085;28;20170;-54
2022/03/29 05:49:30;;;;;;;9.07;5.57;;;18.40;50.20;19.40;100460.00;;;;4991806;28;20294;-52
2022/03/29 05:51:56;;;;;;;8.20;5.33;;;18.50;50.30;19.40;100462.00;;;;4991657;28;20187;-53
2022/03/29 05:54:22;;;;;;;8.33;5.40;;;18.40;50.20;19.40;100460.00;;;;4991276;28;20190;-52
2022/03/29 05:56:49;;;;;;;6.07;5.47;;;18.50;50.30;19.40;100465.00;;;;5006729;28;20584;-53
2022/03/29 05:59:15;;;;;;;5.73;5.13;;;18.40;50.20;19.30;100458.00;;;;4991998;28;20271;-52
2022/03/29 06:01:40;;;;;;;7.37;5.40;;;18.40;50.20;19.30;100433.00;;;;4992658;28;20232;-53
2022/03/29 06:04:07;;;;;;;6.57;5.13;;;18.40;50.20;19.30;100466.00;;;;4992854;28;20177;-52
2022/03/29 06:06:38;;;;;;;7.53;5.50;;;18.40;50.20;19.30;100469.00;;;;4992412;28;20587;-52
2022/03/29 06:09:04;;;;;;;8.47;5.33;;;18.40;50.10;19.30;100477.00;;;;5006657;28;20251;-53
2022/03/29 06:11:30;;;;;;;6.67;5.10;;;18.40;50.20;19.30;100470.00;;;;4992651;28;20165;-55
2022/03/29 06:13:56;;;;;;;7.13;5.73;;;18.30;50.10;19.30;100472.00;;;;4991224;28;20183;-54
2022/03/29 06:16:21;;;;;;;6.13;5.07;;;18.30;50.10;19.30;100467.00;;;;4992329;28;20200;-51
2022/03/29 06:18:47;;;;;;;6.37;5.17;;;18.30;50.10;19.20;100472.00;;;;4991394;28;20192;-52
2022/03/29 06:21:13;;;;;;;5.70;5.20;;;18.40;50.20;19.20;100476.00;;;;4991475;28;20202;-52
2022/03/29 06:23:39;;;;;;;8.80;5.47;;;18.30;50.10;19.20;100480.00;;;;4990798;28;20171;-53
2022/03/29 06:26:04;;;;;;;5.63;5.13;;;18.40;50.20;19.20;100478.00;;;;4991050;28;20644;-54
2022/03/29 06:28:30;;;;;;;6.77;5.00;;;18.30;50.10;19.20;100486.00;;;;4992027;28;20203;-53
2022/03/29 06:30:56;;;;;;;5.87;4.83;;;18.30;50.10;19.20;100486.00;;;;4990953;28;20198;-53
2022/03/29 06:33:23;;;;;;;5.90;5.30;;;18.30;50.10;19.10;100482.00;;;;4990940;28;20175;-52
2022/03/29 06:35:49;;;;;;;5.67;5.17;;;18.30;50.10;19.20;100483.00;;;;4990884;28;20172;-54
2022/03/29 06:38:20;;;;;;;5.60;5.10;;;18.20;50.10;19.20;100485.00;;;;4990956;28;20193;-52
2022/03/29 06:40:47;;;;;;;5.43;4.93;;;18.30;50.20;19.20;100485.00;;;;4990722;28;20280;-53
2022/03/29 06:43:13;;;;;;;5.57;5.07;;;18.30;50.20;19.10;100485.00;;;;4991334;28;20266;-53
2022/03/29 06:45:39;;;;;;;5.23;4.80;;;18.30;50.20;19.10;100492.00;;;;5006324;28;20178;-53
2022/03/29 06:48:05;;;;;;;5.70;5.20;;;18.30;50.20;19.10;100493.00;;;;4990860;28;20191;-55
2022/03/29 06:50:32;;;;;;;6.13;5.40;;;18.30;50.20;19.10;100490.00;;;;4993133;28;20324;-53
2022/03/29 06:52:59;;;;;;;7.07;5.67;;;18.20;50.10;19.10;100492.00;;;;4993760;28;20180;-53
2022/03/29 06:55:25;;;;;;;6.50;5.90;;;18.20;50.10;19.10;100492.00;;;;5006831;28;20247;-52
2022/03/29 06:57:51;;;;;;;6.67;6.07;;;18.20;50.10;19.10;100503.00;;;;5005783;28;21942;-53
2022/03/29 07:00:17;;;;;;;6.53;5.97;;;18.20;50.10;19.10;100503.00;;;;4991211;28;20207;-53
2022/03/29 07:02:43;;;;;;;6.37;5.77;;;18.20;50.10;19.10;100502.00;;;;4991106;28;20165;-52
2022/03/29 07:05:09;;;;;;;6.70;6.07;;;18.20;50.10;19.10;100506.00;;;;4990752;28;20164;-53
2022/03/29 07:07:35;;;;;;;6.60;5.90;;;18.20;50.10;19.10;100504.00;;;;5005959;28;20699;-53
2022/03/29 07:12:50;;;;;;;6.50;5.90;;;18.10;50.10;19.00;100504.00;;;;4990665;28;20168;-53
2022/03/29 07:15:16;;;;;;;6.40;5.80;;;18.20;50.20;19.00;100504.00;;;;4990333;28;20161;-53
2022/03/29 07:17:43;;;;;;;6.63;6.03;;;18.10;50.10;19.00;100500.00;;;;4990233;28;20187;-53
2022/03/29 07:20:10;;;;;;;5.90;5.40;;;18.10;50.10;19.00;100490.00;;;;4990292;28;20305;-53
2022/03/29 07:22:36;;;;;;;6.53;5.93;;;18.10;50.10;19.00;100491.00;;;;4990422;28;20499;-52
2022/03/29 07:25:01;;;;;;;6.43;5.83;;;18.10;50.10;19.00;100494.00;;;;4990294;28;20245;-52
2022/03/29 07:27:27;;;;;;;6.27;5.63;;;18.10;50.10;19.00;100500.00;;;;4989540;28;20274;-52
2022/03/29 07:29:53;;;;;;;6.63;6.03;;;18.10;50.80;19.00;100490.00;;;;4989038;28;20200;-53
2022/03/29 07:32:19;;;;;;;6.37;5.77;;;18.10;50.10;19.00;100490.00;;;;4990168;28;20705;-53
2022/03/29 07:34:44;;;;;;;5.87;5.37;;;18.10;50.40;19.00;100488.00;;;;4914783;28;21715;-55
2022/03/29 07:37:10;;;;;;;6.53;5.30;;;18.10;50.50;19.00;100489.00;;;;4989588;28;20178;-52
2022/03/29 07:39:36;;;;;;;5.97;5.37;;;18.10;50.50;19.00;100495.00;;;;4997748;28;20407;-54
2022/03/29 07:42:03;;;;;;;5.67;5.13;;;18.10;50.50;19.00;100487.00;;;;5009163;28;20220;-54
2022/03/29 07:44:28;;;;;;;5.80;5.20;;;18.10;50.50;19.00;100494.00;;;;5009749;28;20174;-54
2022/03/29 07:46:54;;;;;;;5.50;5.00;;;18.10;50.50;19.00;100484.00;;;;5009281;28;20173;-55
2022/03/29 07:49:20;;;;;;;8.80;5.20;;;18.10;50.50;19.00;100486.00;;;;5008394;28;20258;-55
2022/03/29 07:51:45;;;;;;;5.70;5.10;;;18.10;50.70;19.00;100483.00;;;;5001506;28;20171;-52
2022/03/29 07:54:11;;;;;;;6.27;4.87;;;18.00;50.70;19.00;100480.00;;;;4989968;28;20174;-53
2022/03/29 07:56:37;;;;;;;6.80;4.83;;;18.10;50.80;19.00;100473.00;;;;4988755;28;20658;-55
2022/03/29 07:59:02;;;;;;;5.43;4.93;;;18.00;50.90;19.00;100475.00;;;;4989597;28;20190;-53
2022/03/29 08:01:29;;;;;;;5.40;4.90;;;18.00;51.00;19.00;100473.00;;;;4989366;28;20197;-53
2022/03/29 08:03:55;;;;;;;8.20;4.60;;;18.10;51.20;19.00;100474.00;;;;4989527;28;20268;-51
2022/03/29 08:06:21;;;;;;;7.90;5.00;;;18.00;52.00;19.00;100464.00;;;;4989130;28;20244;-51
2022/03/29 08:08:47;;;;;;;8.87;5.20;;;18.10;52.50;19.00;100471.00;;;;4987720;28;20202;-54
2022/03/29 08:11:13;;;;;;;8.57;4.73;;;18.10;52.90;19.00;100465.00;;;;4988944;28;20268;-51
2022/03/29 08:13:39;;;;;;;6.73;4.70;;;18.10;52.50;19.00;100469.00;;;;4989384;28;20180;-52
2022/03/29 08:16:05;;;;;;;8.50;4.43;;;18.10;52.40;19.00;100458.00;;;;4989107;28;20173;-51
2022/03/29 08:18:31;;;;;;;9.20;4.87;;;18.10;52.20;19.00;100459.00;;;;4989347;28;20564;-53
2022/03/29 08:20:57;;;;;;;6.33;4.53;;;18.10;52.20;19.00;100458.00;;;;4989556;28;20226;-52
2022/03/29 08:23:23;;;;;;;7.10;4.50;;;18.10;52.30;19.00;100455.00;;;;4989902;28;20650;-52
2022/03/29 08:25:49;;;;;;;7.17;4.83;;;18.10;52.20;19.00;100462.00;;;;4989596;28;20199;-52
2022/03/29 08:28:15;;;;;;;5.67;4.30;;;18.10;52.30;19.00;100462.00;;;;4994847;28;20238;-53
2022/03/29 08:30:42;;;;;;;7.47;4.87;;;18.10;52.20;19.00;100447.00;;;;5007250;28;20156;-50
2022/03/29 08:33:07;;;;;;;5.43;4.30;;;18.10;52.40;19.00;100450.00;;;;5008727;28;20684;-52
2022/03/29 08:35:34;;;;;;;5.67;4.20;;;18.10;52.40;18.90;100454.00;;;;4893446;28;20177;-54
2022/03/29 08:38:00;;;;;;;10.43;4.53;;;18.10;52.40;18.90;100449.00;;;;4969684;28;20317;-54
2022/03/29 08:40:28;;;;;;;5.23;4.30;;;18.10;52.30;19.00;100448.00;;;;4974129;28;20291;-53
2022/03/29 08:42:56;;;;;;;7.23;4.40;;;18.10;52.40;18.90;100455.00;;;;4988971;28;20176;-53
2022/03/29 08:45:26;;;;;;;6.57;4.23;;;18.10;52.40;18.90;100451.00;;;;4989062;28;20166;-53
2022/03/29 08:47:54;;;;;;;4.50;4.00;;;18.10;52.50;18.90;100428.00;;;;4988913;28;20192;-52
2022/03/29 08:50:19;;;;;;;5.00;4.20;;;18.10;52.60;18.90;100447.00;;;;4988536;28;20168;-52
2022/03/29 08:52:45;;;;;;;4.50;4.10;;;18.10;52.50;18.90;100455.00;;;;4988333;28;20176;-50
2022/03/29 08:55:11;;;;;;;5.20;4.00;;;18.00;52.30;18.90;100441.00;;;;4988342;28;20174;-51
2022/03/29 08:57:37;;;;;;;6.20;4.10;;;18.10;52.20;18.90;100440.00;;;;4989118;28;20544;-50
2022/03/29 09:00:05;;;;;;;12.43;4.57;;;18.10;52.10;18.90;100441.00;;;;4988910;28;20198;-50
2022/03/29 09:02:35;;;;;;;11.97;4.30;;;18.10;52.20;19.00;100436.00;;;;4989004;28;20187;-52
2022/03/29 09:05:15;;;;;;;8.47;4.10;;;18.10;52.10;19.00;100429.00;;;;4988383;28;20229;-52
2022/03/29 09:07:52;;;;;;;6.00;4.33;;;18.10;52.20;19.00;100423.00;;;;4989009;28;20172;-52
2022/03/29 09:10:19;;;;;;;5.60;4.10;;;18.10;52.20;19.00;100420.00;;;;4988708;28;20195;-51
2022/03/29 09:12:45;;;;;;;7.20;4.10;;;18.10;52.20;18.60;100429.00;;;;4988918;28;20186;-51
2022/03/29 09:15:12;;;;;;;6.40;4.13;;;18.10;52.20;19.00;100421.00;;;;4988558;28;20187;-52
2022/03/29 09:17:46;;;;;;;4.93;3.90;;;18.00;52.10;19.00;100423.00;;;;4988714;28;20489;-50
2022/03/29 09:20:21;;;;;;;3.90;3.50;;;18.00;52.10;19.00;100423.00;;;;4988808;28;20205;-51
2022/03/29 09:22:52;;;;;;;4.07;3.67;;;18.00;52.20;19.00;100430.00;;;;4992377;28;20197;-51
2022/03/29 09:25:34;;;;;;;5.83;3.90;;;18.10;52.30;19.00;100425.00;;;;4992794;28;20185;-52
2022/03/29 09:28:15;;;;;;;3.93;3.53;;;18.00;52.20;19.00;100417.00;;;;4997308;28;20212;-52
2022/03/29 09:30:53;;;;;;;7.27;4.00;;;18.00;52.20;19.00;100418.00;;;;5011669;28;20175;-50
2022/03/29 09:33:31;;;;;;;3.93;3.53;;;18.00;52.20;19.00;100412.00;;;;5011508;28;20189;-50
2022/03/29 09:36:03;;;;;;;6.80;3.70;;;18.00;52.10;19.00;100411.00;;;;4929398;28;20188;-51
2022/03/29 09:38:30;;;;;;;8.37;3.80;;;18.00;52.10;19.00;100407.00;;;;4991297;28;20211;-53
2022/03/29 09:40:57;;;;;;;8.33;3.50;;;18.10;52.10;19.00;100404.00;;;;4991915;28;20296;-52
2022/03/29 09:43:25;;;;;;;7.30;3.80;;;18.10;52.50;19.00;100402.00;;;;4991999;28;20178;-53
2022/03/29 09:45:53;;;;;;;5.63;3.77;;;18.10;53.00;19.00;100407.00;;;;4991722;28;20175;-52
2022/03/29 09:48:32;;;;;;;5.37;3.37;;;18.10;52.30;19.00;100403.00;;;;4991617;28;20199;-52
2022/03/29 09:51:09;;;;;;;4.23;3.77;;;18.10;52.50;19.00;100394.00;;;;4991870;28;20187;-51
2022/03/29 09:53:51;;;;;;;3.90;3.60;;;18.10;52.50;19.00;100371.00;;;;4990725;28;20270;-53
2022/03/29 09:56:24;;;;;;;4.63;3.70;;;18.10;52.50;19.00;100390.00;;;;4990662;28;20213;-52
2022/03/29 09:59:16;;;;;;;4.50;3.47;;;18.20;52.60;19.00;100386.00;;;;4991924;28;20207;-53
2022/03/29 10:01:54;;;;;;;4.00;3.60;;;18.20;52.50;19.00;100382.00;;;;4991041;28;20201;-53
2022/03/29 10:04:21;;;;;;;5.13;3.70;;;18.20;52.20;19.10;100378.00;;;;4991728;28;20693;-53
2022/03/29 10:06:48;;;;;;;4.67;3.50;;;18.20;52.30;19.10;100371.00;;;;4992011;28;20160;-53
2022/03/29 10:09:25;;;;;;;5.40;3.60;;;18.30;52.40;19.10;100363.00;;;;4992844;28;20234;-52
2022/03/29 10:11:52;;;;;;;4.10;3.33;;;18.20;52.30;19.10;100355.00;;;;4992719;28;20156;-54
2022/03/29 10:14:21;;;;;;;3.63;3.33;;;18.30;52.30;19.10;100359.00;;;;4991223;28;20171;-53
2022/03/29 10:16:47;;;;;;;3.63;3.20;;;18.30;52.20;19.10;100355.00;;;;4984686;28;20235;-52
2022/03/29 10:19:13;;;;;;;3.77;3.40;;;18.30;52.10;19.10;100346.00;;;;5004723;28;20713;-51
2022/03/29 10:21:40;;;;;;;3.77;3.30;;;18.40;52.30;19.20;100342.00;;;;4990893;28;20289;-52
2022/03/29 10:24:07;;;;;;;4.70;3.63;;;18.40;52.20;19.20;100354.00;;;;5006641;28;20592;-52
2022/03/29 10:26:33;;;;;;;3.90;3.50;;;18.40;52.20;19.20;100353.00;;;;5006711;28;20223;-51
2022/03/29 10:28:59;;;;;;;3.87;3.10;;;18.40;52.20;19.20;100353.00;;;;5006207;28;20209;-51
2022/03/29 10:31:34;;;;;;;4.53;3.83;;;18.40;52.10;19.20;100352.00;;;;4991036;28;20181;-51
2022/03/29 10:34:11;;;;;;;3.60;3.27;;;18.50;53.30;19.20;100351.00;;;;5005068;28;20178;-51
2022/03/29 10:37:18;;;;;;;6.00;3.40;;;18.60;53.90;19.20;100342.00;;;;4990483;28;20328;-52
2022/03/29 10:40:05;;;;;;;5.60;3.53;;;18.70;53.90;19.40;100309.00;;;;4990674;28;20213;-52
2022/03/29 10:42:38;;;;;;;4.33;3.40;;;19.00;53.80;19.50;100334.00;;;;4991017;28;20164;-51
2022/03/29 10:45:23;;;;;;;5.13;3.33;;;19.30;53.60;19.70;100326.00;;;;4991164;28;20282;-53
2022/03/29 10:48:00;;;;;;;9.47;3.57;;;19.60;53.20;19.90;100324.00;;;;5005410;28;20160;-51
2022/03/29 10:50:51;;;;;;;5.87;3.33;;;20.10;52.70;20.10;100318.00;;;;4990451;28;20188;-53
2022/03/29 10:53:37;;;;;;;6.47;3.10;;;20.40;52.20;20.40;100309.00;;;;4989150;28;20666;-54
2022/03/29 10:56:22;;;;;;;6.87;3.30;;;20.60;52.10;20.60;100289.00;;;;5004920;28;20259;-53